Maui, HI

11:24 AM HST on February 25, 2017 (GMT -1000)
Wailuku Kehalani | | Change Station
Active Advisory: High Surf Advisory Active Notice: High Surf Advisory

Elev 259 ft 20.87 °N, 156.50 °W | Updated 11 seconds ago

Mostly Cloudy
Mostly Cloudy
72.3 °F
Feels Like 77 °F
N
2.5
Wind Variable Wind from NW
Gusts 7.6 mph

Today
High -- | Low -- °F
--% Chance of Precip.
Yesterday
High -- | Low -- °F
Precip. -- in
Pressure 30.08 in
Visibility 10.0 miles
Clouds Scattered Clouds 2500 ft
Scattered Clouds 6000 ft
Heat Index 77 °F
Dew Point 48 °F
Humidity 42%
Rainfall 0.00 in
Snow Depth Not available.
6:48 AM 6:29 PM
Waning Crescent, 1% visible
METAR PHOG 252054Z 02008KT 10SM SCT025 SCT060 23/18 A3006 RMK AO2 SLP185 T02280178 50001
Pressure 30.08 in
Visibility 10.0 miles
Clouds Scattered Clouds 2500 ft
Scattered Clouds 6000 ft
Heat Index 77 °F
Dew Point 48 °F
Humidity 42%
Rainfall 0.00 in
Snow Depth Not available.
6:48 AM 6:29 PM
Waning Crescent, 1% visible
METAR PHOG 252054Z 02008KT 10SM SCT025 SCT060 23/18 A3006 RMK AO2 SLP185 T02280178 50001

Get Your Daily Forecast Email!

Thanks for signing up!

Be on the lookout for a verification email in your inbox.

You'll start receiving the daily forecast at 8 AM.

×

10-Day Weather Forecast

Almanac

Astronomy

Feb. 25, 2017 Rise Set
Actual Time
Civil Twilight
Nautical Twilight
Astronomical Twilight
Moon
Length of Visible Light
Length of Day
Tomorrow will be .
, % of the Moon is Illuminated

Today's Extremes

State Highs State Lows

Community

WunderPhotos

Upload Photos

1,962,540 photos uploaded!

WunderBlog® & News

Nearby

Air Quality

  Air Quality AQ Index Pollutant
Not available.

Snow Depth

Station Depth Elevation

Earthquake Activity

City Distance Mag. Time & Date
Minimum magnitude displayed is 2.5.

Coastal Water Temperatures

Place Temperature

Stations

Nearby Weather Stations

Station Location Temp. Windchill Dew Point Humidity Wind Precip. Elev Updated Type
                   

Watches & Warnings

High Surf Advisory
Issued: 3:29 AM HST Feb. 25, 2017 – National Weather Service

... High surf advisory remains in effect until 6 am HST Sunday...

* surf... 10 to 15 feet along north and west facing shores of
Niihau and Kauai... and north facing shores of Oahu Molokai and
Maui and 8 to 12 feet along west facing shores of Oahu and
Molokai.

* Timing... through Saturday night.

* Impacts... moderate... expect strong breaking waves... shore
break... and strong longshore and rip currents making swimming
difficult and dangerous.

Precautionary/preparedness actions...

Beachgoers... swimmers... and surfers should heed all advice given
by ocean safety officials and exercise caution. Boaters should
expect recreational surfers and body boarders utilizing Harbor
channels to access surfing areas.